sensor_id;sensor_type;location;lat;lon;timestamp;temperature;humidity
20180;DHT22;10249;48.900;9.090;2022-07-23T00:01:24;25.00;99.90
20180;DHT22;10249;48.900;9.090;2022-07-23T00:03:55;24.90;99.90
20180;DHT22;10249;48.900;9.090;2022-07-23T00:06:22;24.90;99.90
20180;DHT22;10249;48.900;9.090;2022-07-23T00:08:49;24.90;99.90
20180;DHT22;10249;48.900;9.090;2022-07-23T00:11:16;24.80;99.90
20180;DHT22;10249;48.900;9.090;2022-07-23T00:13:43;24.80;99.90
20180;DHT22;10249;48.900;9.090;2022-07-23T00:16:10;24.60;99.90
20180;DHT22;10249;48.900;9.090;2022-07-23T00:18:37;24.70;99.90
20180;DHT22;10249;48.900;9.090;2022-07-23T00:21:05;24.80;99.90
20180;DHT22;10249;48.900;9.090;2022-07-23T00:23:33;24.60;99.90
20180;DHT22;10249;48.900;9.090;2022-07-23T00:25:59;24.50;99.90
20180;DHT22;10249;48.900;9.090;2022-07-23T00:28:26;24.50;99.90
20180;DHT22;10249;48.900;9.090;2022-07-23T00:30:53;24.40;99.90
20180;DHT22;10249;48.900;9.090;2022-07-23T00:33:20;24.30;99.90
20180;DHT22;10249;48.900;9.090;2022-07-23T00:35:46;24.40;99.90
20180;DHT22;10249;48.900;9.090;2022-07-23T00:38:14;24.50;99.90
20180;DHT22;10249;48.900;9.090;2022-07-23T00:40:41;24.40;99.90
20180;DHT22;10249;48.900;9.090;2022-07-23T00:43:08;24.40;99.90
20180;DHT22;10249;48.900;9.090;2022-07-23T00:45:35;24.40;99.90
20180;DHT22;10249;48.900;9.090;2022-07-23T00:48:02;24.20;99.90
20180;DHT22;10249;48.900;9.090;2022-07-23T00:50:29;23.90;99.90
20180;DHT22;10249;48.900;9.090;2022-07-23T00:52:56;24.20;99.90
20180;DHT22;10249;48.900;9.090;2022-07-23T00:55:24;24.10;99.90
20180;DHT22;10249;48.900;9.090;2022-07-23T00:57:53;24.10;99.90
20180;DHT22;10249;48.900;9.090;2022-07-23T01:00:19;24.20;99.90
20180;DHT22;10249;48.900;9.090;2022-07-23T01:02:46;23.90;99.90
20180;DHT22;10249;48.900;9.090;2022-07-23T01:07:40;23.80;99.90
20180;DHT22;10249;48.900;9.090;2022-07-23T01:10:08;23.80;99.90
20180;DHT22;10249;48.900;9.090;2022-07-23T01:12:50;23.80;99.90
20180;DHT22;10249;48.900;9.090;2022-07-23T01:15:17;23.70;99.90
20180;DHT22;10249;48.900;9.090;2022-07-23T01:17:44;23.70;99.90
20180;DHT22;10249;48.900;9.090;2022-07-23T01:20:10;23.70;99.90
20180;DHT22;10249;48.900;9.090;2022-07-23T01:22:38;23.60;99.90
20180;DHT22;10249;48.900;9.090;2022-07-23T01:25:06;23.40;99.90
20180;DHT22;10249;48.900;9.090;2022-07-23T01:27:33;23.70;99.90
20180;DHT22;10249;48.900;9.090;2022-07-23T01:30:00;23.70;99.90
20180;DHT22;10249;48.900;9.090;2022-07-23T01:32:28;23.60;99.90
20180;DHT22;10249;48.900;9.090;2022-07-23T01:34:55;23.40;99.90
20180;DHT22;10249;48.900;9.090;2022-07-23T01:37:22;23.40;99.90
20180;DHT22;10249;48.900;9.090;2022-07-23T01:39:50;23.60;99.90
20180;DHT22;10249;48.900;9.090;2022-07-23T01:42:16;23.50;99.90
20180;DHT22;10249;48.900;9.090;2022-07-23T01:44:43;23.20;99.90
20180;DHT22;10249;48.900;9.090;2022-07-23T01:47:10;23.20;99.90
20180;DHT22;10249;48.900;9.090;2022-07-23T01:49:37;23.40;99.90
20180;DHT22;10249;48.900;9.090;2022-07-23T01:52:04;23.10;99.90
20180;DHT22;10249;48.900;9.090;2022-07-23T01:54:35;23.00;99.90
20180;DHT22;10249;48.900;9.090;2022-07-23T01:57:03;22.90;99.90
20180;DHT22;10249;48.900;9.090;2022-07-23T01:59:30;22.90;99.90
20180;DHT22;10249;48.900;9.090;2022-07-23T02:01:58;22.90;99.90
20180;DHT22;10249;48.900;9.090;2022-07-23T02:04:25;23.00;99.90
20180;DHT22;10249;48.900;9.090;2022-07-23T02:06:52;22.80;99.90
20180;DHT22;10249;48.900;9.090;2022-07-23T02:09:19;22.80;99.90
20180;DHT22;10249;48.900;9.090;2022-07-23T02:11:46;23.00;99.90
20180;DHT22;10249;48.900;9.090;2022-07-23T02:14:14;22.70;99.90
20180;DHT22;10249;48.900;9.090;2022-07-23T02:16:41;22.70;99.90
20180;DHT22;10249;48.900;9.090;2022-07-23T02:19:07;22.60;99.90
20180;DHT22;10249;48.900;9.090;2022-07-23T02:21:34;22.70;99.90
20180;DHT22;10249;48.900;9.090;2022-07-23T02:24:01;22.90;99.90
20180;DHT22;10249;48.900;9.090;2022-07-23T02:26:27;22.60;99.90
20180;DHT22;10249;48.900;9.090;2022-07-23T02:28:54;22.40;99.90
20180;DHT22;10249;48.900;9.090;2022-07-23T02:31:22;22.40;99.90
20180;DHT22;10249;48.900;9.090;2022-07-23T02:33:49;22.40;99.90
20180;DHT22;10249;48.900;9.090;2022-07-23T02:36:15;22.30;99.90
20180;DHT22;10249;48.900;9.090;2022-07-23T02:38:42;22.30;99.90
20180;DHT22;10249;48.900;9.090;2022-07-23T02:41:09;22.40;99.90
20180;DHT22;10249;48.900;9.090;2022-07-23T02:43:36;22.50;99.90
20180;DHT22;10249;48.900;9.090;2022-07-23T02:46:02;22.60;99.90
20180;DHT22;10249;48.900;9.090;2022-07-23T02:48:31;22.50;99.90
20180;DHT22;10249;48.900;9.090;2022-07-23T02:50:58;22.50;99.90
20180;DHT22;10249;48.900;9.090;2022-07-23T02:53:25;23.00;99.90
20180;DHT22;10249;48.900;9.090;2022-07-23T02:55:52;22.70;99.90
20180;DHT22;10249;48.900;9.090;2022-07-23T02:58:18;22.70;99.90
20180;DHT22;10249;48.900;9.090;2022-07-23T03:00:45;22.60;99.90
20180;DHT22;10249;48.900;9.090;2022-07-23T03:03:12;22.30;99.90
20180;DHT22;10249;48.900;9.090;2022-07-23T03:05:40;22.30;99.90
20180;DHT22;10249;48.900;9.090;2022-07-23T03:08:07;22.20;99.90
20180;DHT22;10249;48.900;9.090;2022-07-23T03:10:33;22.20;99.90
20180;DHT22;10249;48.900;9.090;2022-07-23T03:13:00;22.50;99.90
20180;DHT22;10249;48.900;9.090;2022-07-23T03:15:27;22.10;99.90
20180;DHT22;10249;48.900;9.090;2022-07-23T03:17:54;22.10;99.90
20180;DHT22;10249;48.900;9.090;2022-07-23T03:20:20;22.20;99.90
20180;DHT22;10249;48.900;9.090;2022-07-23T03:22:48;22.20;99.90
20180;DHT22;10249;48.900;9.090;2022-07-23T03:25:15;22.00;99.90
20180;DHT22;10249;48.900;9.090;2022-07-23T03:27:42;22.00;99.90
20180;DHT22;10249;48.900;9.090;2022-07-23T03:30:11;22.00;99.90
20180;DHT22;10249;48.900;9.090;2022-07-23T03:32:38;22.10;99.90
20180;DHT22;10249;48.900;9.090;2022-07-23T03:35:05;22.10;99.90
20180;DHT22;10249;48.900;9.090;2022-07-23T03:37:32;22.10;99.90
20180;DHT22;10249;48.900;9.090;2022-07-23T03:40:00;22.00;99.90
20180;DHT22;10249;48.900;9.090;2022-07-23T03:42:27;21.70;99.90
20180;DHT22;10249;48.900;9.090;2022-07-23T03:44:54;21.90;99.90
20180;DHT22;10249;48.900;9.090;2022-07-23T03:47:20;21.80;99.90
20180;DHT22;10249;48.900;9.090;2022-07-23T03:49:48;21.80;99.90
20180;DHT22;10249;48.900;9.090;2022-07-23T03:52:15;21.80;99.90
20180;DHT22;10249;48.900;9.090;2022-07-23T03:54:42;21.80;99.90
20180;DHT22;10249;48.900;9.090;2022-07-23T03:57:10;21.60;99.90
20180;DHT22;10249;48.900;9.090;2022-07-23T03:59:36;21.60;99.90
20180;DHT22;10249;48.900;9.090;2022-07-23T04:02:03;21.70;99.90
20180;DHT22;10249;48.900;9.090;2022-07-23T04:04:30;21.90;99.90
20180;DHT22;10249;48.900;9.090;2022-07-23T04:06:57;21.70;99.90
20180;DHT22;10249;48.900;9.090;2022-07-23T04:09:23;21.60;99.90
20180;DHT22;10249;48.900;9.090;2022-07-23T04:11:50;21.60;99.90
20180;DHT22;10249;48.900;9.090;2022-07-23T04:14:18;21.50;99.90
20180;DHT22;10249;48.900;9.090;2022-07-23T04:16:45;21.80;99.90
20180;DHT22;10249;48.900;9.090;2022-07-23T04:19:11;21.60;99.90
20180;DHT22;10249;48.900;9.090;2022-07-23T04:21:38;21.50;99.90
20180;DHT22;10249;48.900;9.090;2022-07-23T04:24:05;21.70;99.90
20180;DHT22;10249;48.900;9.090;2022-07-23T04:26:32;21.60;99.90
20180;DHT22;10249;48.900;9.090;2022-07-23T04:28:59;21.70;99.90
20180;DHT22;10249;48.900;9.090;2022-07-23T04:31:27;21.90;99.90
20180;DHT22;10249;48.900;9.090;2022-07-23T04:33:53;22.10;99.90
20180;DHT22;10249;48.900;9.090;2022-07-23T04:36:20;22.00;99.90
20180;DHT22;10249;48.900;9.090;2022-07-23T04:38:47;22.20;99.90
20180;DHT22;10249;48.900;9.090;2022-07-23T04:41:13;22.10;99.90
20180;DHT22;10249;48.900;9.090;2022-07-23T04:43:40;22.30;99.90
20180;DHT22;10249;48.900;9.090;2022-07-23T04:46:07;22.00;99.90
20180;DHT22;10249;48.900;9.090;2022-07-23T04:48:35;22.00;99.90
20180;DHT22;10249;48.900;9.090;2022-07-23T04:51:01;22.10;99.90
20180;DHT22;10249;48.900;9.090;2022-07-23T04:53:28;22.20;99.90
20180;DHT22;10249;48.900;9.090;2022-07-23T04:55:55;22.20;99.90
20180;DHT22;10249;48.900;9.090;2022-07-23T04:58:22;22.30;99.90
20180;DHT22;10249;48.900;9.090;2022-07-23T05:00:49;22.30;99.90
20180;DHT22;10249;48.900;9.090;2022-07-23T05:03:16;22.10;99.90
20180;DHT22;10249;48.900;9.090;2022-07-23T05:05:44;21.80;99.90
20180;DHT22;10249;48.900;9.090;2022-07-23T05:08:10;21.90;99.90
20180;DHT22;10249;48.900;9.090;2022-07-23T05:10:37;21.80;99.90
20180;DHT22;10249;48.900;9.090;2022-07-23T05:13:04;22.10;99.90
20180;DHT22;10249;48.900;9.090;2022-07-23T05:15:30;22.30;99.90
20180;DHT22;10249;48.900;9.090;2022-07-23T05:17:57;22.50;99.90
20180;DHT22;10249;48.900;9.090;2022-07-23T05:20:24;22.20;99.90
20180;DHT22;10249;48.900;9.090;2022-07-23T05:22:52;22.30;99.90
20180;DHT22;10249;48.900;9.090;2022-07-23T05:25:19;22.00;99.90
20180;DHT22;10249;48.900;9.090;2022-07-23T05:27:46;21.90;99.90
20180;DHT22;10249;48.900;9.090;2022-07-23T05:30:13;22.00;99.90
20180;DHT22;10249;48.900;9.090;2022-07-23T05:32:39;21.80;99.90
20180;DHT22;10249;48.900;9.090;2022-07-23T05:35:07;21.50;99.90
20180;DHT22;10249;48.900;9.090;2022-07-23T05:37:34;21.50;99.90
20180;DHT22;10249;48.900;9.090;2022-07-23T05:40:03;21.70;99.90
20180;DHT22;10249;48.900;9.090;2022-07-23T05:42:31;21.80;99.90
20180;DHT22;10249;48.900;9.090;2022-07-23T05:44:58;22.00;99.90
20180;DHT22;10249;48.900;9.090;2022-07-23T05:47:25;21.60;99.90
20180;DHT22;10249;48.900;9.090;2022-07-23T05:54:46;21.00;99.90
20180;DHT22;10249;48.900;9.090;2022-07-23T05:57:14;21.00;99.90
20180;DHT22;10249;48.900;9.090;2022-07-23T05:59:40;21.10;99.90
20180;DHT22;10249;48.900;9.090;2022-07-23T06:02:07;21.10;99.90
20180;DHT22;10249;48.900;9.090;2022-07-23T06:04:34;21.10;99.90
20180;DHT22;10249;48.900;9.090;2022-07-23T06:07:00;21.20;99.90
20180;DHT22;10249;48.900;9.090;2022-07-23T06:09:27;21.20;99.90
20180;DHT22;10249;48.900;9.090;2022-07-23T06:11:54;21.20;99.90
20180;DHT22;10249;48.900;9.090;2022-07-23T06:14:22;21.30;99.90
20180;DHT22;10249;48.900;9.090;2022-07-23T06:16:48;21.50;99.90
20180;DHT22;10249;48.900;9.090;2022-07-23T06:19:15;21.50;99.90
20180;DHT22;10249;48.900;9.090;2022-07-23T06:21:42;21.70;99.90
20180;DHT22;10249;48.900;9.090;2022-07-23T06:24:08;21.90;99.90
20180;DHT22;10249;48.900;9.090;2022-07-23T06:26:35;22.10;99.90
20180;DHT22;10249;48.900;9.090;2022-07-23T06:29:02;21.90;99.90
20180;DHT22;10249;48.900;9.090;2022-07-23T06:31:30;22.00;99.90
20180;DHT22;10249;48.900;9.090;2022-07-23T06:33:57;22.00;99.90
20180;DHT22;10249;48.900;9.090;2022-07-23T06:36:23;22.10;99.90
20180;DHT22;10249;48.900;9.090;2022-07-23T06:38:50;21.90;99.90
20180;DHT22;10249;48.900;9.090;2022-07-23T06:41:17;22.00;99.90
20180;DHT22;10249;48.900;9.090;2022-07-23T06:43:43;22.10;99.90
20180;DHT22;10249;48.900;9.090;2022-07-23T06:46:10;21.80;99.90
20180;DHT22;10249;48.900;9.090;2022-07-23T06:48:38;21.50;99.90
20180;DHT22;10249;48.900;9.090;2022-07-23T06:51:05;21.30;99.90
20180;DHT22;10249;48.900;9.090;2022-07-23T06:53:32;21.10;99.90
20180;DHT22;10249;48.900;9.090;2022-07-23T06:55:58;21.00;99.90
20180;DHT22;10249;48.900;9.090;2022-07-23T06:58:25;20.90;99.90
20180;DHT22;10249;48.900;9.090;2022-07-23T07:00:52;20.80;99.90
20180;DHT22;10249;48.900;9.090;2022-07-23T07:03:19;20.50;99.90
20180;DHT22;10249;48.900;9.090;2022-07-23T07:05:47;20.50;99.90
20180;DHT22;10249;48.900;9.090;2022-07-23T07:08:15;20.10;99.90
20180;DHT22;10249;48.900;9.090;2022-07-23T07:10:42;20.00;99.90
20180;DHT22;10249;48.900;9.090;2022-07-23T07:13:08;19.60;99.90
20180;DHT22;10249;48.900;9.090;2022-07-23T07:15:35;19.30;99.90
20180;DHT22;10249;48.900;9.090;2022-07-23T07:18:02;19.30;99.90
20180;DHT22;10249;48.900;9.090;2022-07-23T07:20:29;19.20;99.90
20180;DHT22;10249;48.900;9.090;2022-07-23T07:22:57;19.30;99.90
20180;DHT22;10249;48.900;9.090;2022-07-23T07:27:51;19.30;99.90
20180;DHT22;10249;48.900;9.090;2022-07-23T07:30:17;19.40;99.90
20180;DHT22;10249;48.900;9.090;2022-07-23T07:32:44;19.50;99.90
20180;DHT22;10249;48.900;9.090;2022-07-23T07:35:11;19.30;99.90
20180;DHT22;10249;48.900;9.090;2022-07-23T07:37:38;19.10;99.90
20180;DHT22;10249;48.900;9.090;2022-07-23T08:29:10;22.40;99.90
20180;DHT22;10249;48.900;9.090;2022-07-23T08:31:38;22.80;99.90
20180;DHT22;10249;48.900;9.090;2022-07-23T08:34:05;23.10;99.90
20180;DHT22;10249;48.900;9.090;2022-07-23T08:36:32;22.80;99.90
20180;DHT22;10249;48.900;9.090;2022-07-23T08:38:59;22.70;99.90
20180;DHT22;10249;48.900;9.090;2022-07-23T08:41:27;22.30;99.90
20180;DHT22;10249;48.900;9.090;2022-07-23T08:43:54;22.00;99.90
20180;DHT22;10249;48.900;9.090;2022-07-23T08:46:22;21.80;99.90
20180;DHT22;10249;48.900;9.090;2022-07-23T08:48:51;21.70;99.90
20180;DHT22;10249;48.900;9.090;2022-07-23T08:51:19;21.90;99.90
20180;DHT22;10249;48.900;9.090;2022-07-23T08:53:47;22.30;99.90
20180;DHT22;10249;48.900;9.090;2022-07-23T08:56:14;22.60;99.90
20180;DHT22;10249;48.900;9.090;2022-07-23T08:58:41;23.20;99.90
20180;DHT22;10249;48.900;9.090;2022-07-23T09:01:07;23.90;99.90
20180;DHT22;10249;48.900;9.090;2022-07-23T09:03:36;24.10;99.90
20180;DHT22;10249;48.900;9.090;2022-07-23T09:06:05;24.40;99.90
20180;DHT22;10249;48.900;9.090;2022-07-23T09:08:37;23.50;99.90
20180;DHT22;10249;48.900;9.090;2022-07-23T09:11:05;23.50;99.90
20180;DHT22;10249;48.900;9.090;2022-07-23T09:13:36;23.50;99.90
20180;DHT22;10249;48.900;9.090;2022-07-23T09:16:06;23.30;99.90
20180;DHT22;10249;48.900;9.090;2022-07-23T09:18:41;23.00;99.90
20180;DHT22;10249;48.900;9.090;2022-07-23T09:21:13;23.20;99.90
20180;DHT22;10249;48.900;9.090;2022-07-23T09:23:42;23.60;99.90
20180;DHT22;10249;48.900;9.090;2022-07-23T09:26:26;24.10;99.90
20180;DHT22;10249;48.900;9.090;2022-07-23T09:28:58;24.40;99.90
20180;DHT22;10249;48.900;9.090;2022-07-23T09:31:32;24.10;99.90
20180;DHT22;10249;48.900;9.090;2022-07-23T09:34:14;24.00;99.90
20180;DHT22;10249;48.900;9.090;2022-07-23T09:36:42;23.80;99.90
20180;DHT22;10249;48.900;9.090;2022-07-23T09:39:10;23.70;99.90
20180;DHT22;10249;48.900;9.090;2022-07-23T09:41:39;24.00;99.90
20180;DHT22;10249;48.900;9.090;2022-07-23T09:44:15;24.10;99.90
20180;DHT22;10249;48.900;9.090;2022-07-23T09:46:43;23.70;99.90
20180;DHT22;10249;48.900;9.090;2022-07-23T09:49:13;23.80;99.90
20180;DHT22;10249;48.900;9.090;2022-07-23T09:51:51;23.90;99.90
20180;DHT22;10249;48.900;9.090;2022-07-23T09:54:27;24.10;99.90
20180;DHT22;10249;48.900;9.090;2022-07-23T09:56:57;24.10;99.90
20180;DHT22;10249;48.900;9.090;2022-07-23T09:59:25;24.50;99.90
20180;DHT22;10249;48.900;9.090;2022-07-23T10:01:54;24.20;99.90
20180;DHT22;10249;48.900;9.090;2022-07-23T10:04:23;24.60;99.90
20180;DHT22;10249;48.900;9.090;2022-07-23T10:06:53;25.00;99.90
20180;DHT22;10249;48.900;9.090;2022-07-23T10:09:27;25.10;99.90
20180;DHT22;10249;48.900;9.090;2022-07-23T10:11:57;25.30;99.90
20180;DHT22;10249;48.900;9.090;2022-07-23T10:14:42;25.00;99.90
20180;DHT22;10249;48.900;9.090;2022-07-23T10:17:09;25.40;99.90
20180;DHT22;10249;48.900;9.090;2022-07-23T10:19:36;25.30;99.90
20180;DHT22;10249;48.900;9.090;2022-07-23T10:22:07;25.00;99.90
20180;DHT22;10249;48.900;9.090;2022-07-23T10:24:47;24.80;99.90
20180;DHT22;10249;48.900;9.090;2022-07-23T10:27:39;25.20;99.90
20180;DHT22;10249;48.900;9.090;2022-07-23T10:30:14;25.20;99.90
20180;DHT22;10249;48.900;9.090;2022-07-23T10:32:49;25.20;99.90
20180;DHT22;10249;48.900;9.090;2022-07-23T10:35:23;25.30;99.90
20180;DHT22;10249;48.900;9.090;2022-07-23T10:37:56;25.40;99.90
20180;DHT22;10249;48.900;9.090;2022-07-23T10:40:23;25.30;99.90
20180;DHT22;10249;48.900;9.090;2022-07-23T10:42:51;25.00;99.90
20180;DHT22;10249;48.900;9.090;2022-07-23T10:45:30;25.10;99.90
20180;DHT22;10249;48.900;9.090;2022-07-23T10:48:13;25.50;99.90
20180;DHT22;10249;48.900;9.090;2022-07-23T10:50:40;25.90;99.90
20180;DHT22;10249;48.900;9.090;2022-07-23T10:53:10;26.10;99.90
20180;DHT22;10249;48.900;9.090;2022-07-23T10:55:44;26.00;99.90
20180;DHT22;10249;48.900;9.090;2022-07-23T10:58:11;26.30;99.90
20180;DHT22;10249;48.900;9.090;2022-07-23T11:00:43;26.30;99.90
20180;DHT22;10249;48.900;9.090;2022-07-23T11:03:28;26.40;99.90
20180;DHT22;10249;48.900;9.090;2022-07-23T11:05:55;26.20;99.90
20180;DHT22;10249;48.900;9.090;2022-07-23T11:08:23;26.10;99.90
20180;DHT22;10249;48.900;9.090;2022-07-23T11:10:55;26.40;99.90
20180;DHT22;10249;48.900;9.090;2022-07-23T11:13:37;26.40;99.90
20180;DHT22;10249;48.900;9.090;2022-07-23T11:16:06;26.90;99.90
20180;DHT22;10249;48.900;9.090;2022-07-23T11:19:05;26.40;99.90
20180;DHT22;10249;48.900;9.090;2022-07-23T11:21:42;26.20;99.90
20180;DHT22;10249;48.900;9.090;2022-07-23T11:24:11;26.50;99.90
20180;DHT22;10249;48.900;9.090;2022-07-23T11:26:59;26.00;99.90
20180;DHT22;10249;48.900;9.090;2022-07-23T11:29:42;26.30;99.90
20180;DHT22;10249;48.900;9.090;2022-07-23T11:32:23;25.90;99.90
20180;DHT22;10249;48.900;9.090;2022-07-23T11:34:51;26.30;99.90
20180;DHT22;10249;48.900;9.090;2022-07-23T11:37:36;26.60;99.90
20180;DHT22;10249;48.900;9.090;2022-07-23T11:40:07;26.60;99.90
20180;DHT22;10249;48.900;9.090;2022-07-23T11:42:36;26.70;99.90
20180;DHT22;10249;48.900;9.090;2022-07-23T11:45:06;26.80;99.90
20180;DHT22;10249;48.900;9.090;2022-07-23T11:47:33;26.80;99.90
20180;DHT22;10249;48.900;9.090;2022-07-23T12:07:27;26.80;99.90
20180;DHT22;10249;48.900;9.090;2022-07-23T12:09:56;27.50;99.90
20180;DHT22;10249;48.900;9.090;2022-07-23T12:12:25;27.90;99.90
20180;DHT22;10249;48.900;9.090;2022-07-23T12:14:53;27.60;99.90
20180;DHT22;10249;48.900;9.090;2022-07-23T12:17:22;27.40;99.90
20180;DHT22;10249;48.900;9.090;2022-07-23T12:19:53;27.80;99.90
20180;DHT22;10249;48.900;9.090;2022-07-23T12:22:21;27.30;99.90
20180;DHT22;10249;48.900;9.090;2022-07-23T12:24:55;27.90;99.90
20180;DHT22;10249;48.900;9.090;2022-07-23T12:27:23;27.80;99.90
20180;DHT22;10249;48.900;9.090;2022-07-23T12:29:51;28.30;99.90
20180;DHT22;10249;48.900;9.090;2022-07-23T12:32:20;27.70;99.90
20180;DHT22;10249;48.900;9.090;2022-07-23T12:34:49;27.50;99.90
20180;DHT22;10249;48.900;9.090;2022-07-23T12:37:30;27.40;99.90
20180;DHT22;10249;48.900;9.090;2022-07-23T12:39:57;27.30;99.90
20180;DHT22;10249;48.900;9.090;2022-07-23T12:42:24;27.80;99.90
20180;DHT22;10249;48.900;9.090;2022-07-23T12:45:07;27.80;99.90
20180;DHT22;10249;48.900;9.090;2022-07-23T12:47:52;27.60;99.90
20180;DHT22;10249;48.900;9.090;2022-07-23T12:50:43;27.50;99.90
20180;DHT22;10249;48.900;9.090;2022-07-23T12:53:12;27.00;99.90
20180;DHT22;10249;48.900;9.090;2022-07-23T12:55:41;27.30;99.90
20180;DHT22;10249;48.900;9.090;2022-07-23T12:58:11;27.40;99.90
20180;DHT22;10249;48.900;9.090;2022-07-23T13:00:54;27.40;99.90
20180;DHT22;10249;48.900;9.090;2022-07-23T13:03:27;27.00;99.90
20180;DHT22;10249;48.900;9.090;2022-07-23T13:05:55;27.10;99.90
20180;DHT22;10249;48.900;9.090;2022-07-23T13:08:22;27.30;99.90
20180;DHT22;10249;48.900;9.090;2022-07-23T13:10:49;27.90;99.90
20180;DHT22;10249;48.900;9.090;2022-07-23T13:13:17;28.20;99.90
20180;DHT22;10249;48.900;9.090;2022-07-23T13:15:44;28.10;99.90
20180;DHT22;10249;48.900;9.090;2022-07-23T13:18:12;27.90;99.90
20180;DHT22;10249;48.900;9.090;2022-07-23T13:20:39;27.90;99.90
20180;DHT22;10249;48.900;9.090;2022-07-23T13:23:06;28.10;99.90
20180;DHT22;10249;48.900;9.090;2022-07-23T13:25:33;28.20;99.90
20180;DHT22;10249;48.900;9.090;2022-07-23T13:27:59;28.40;99.90
20180;DHT22;10249;48.900;9.090;2022-07-23T13:30:26;28.50;99.90
20180;DHT22;10249;48.900;9.090;2022-07-23T13:32:53;27.80;99.90
20180;DHT22;10249;48.900;9.090;2022-07-23T13:35:22;28.10;99.90
20180;DHT22;10249;48.900;9.090;2022-07-23T13:37:48;28.50;99.90
20180;DHT22;10249;48.900;9.090;2022-07-23T13:40:15;28.20;99.90
20180;DHT22;10249;48.900;9.090;2022-07-23T13:42:42;28.40;99.90
20180;DHT22;10249;48.900;9.090;2022-07-23T13:45:09;28.70;99.90
20180;DHT22;10249;48.900;9.090;2022-07-23T13:47:35;28.90;99.90
20180;DHT22;10249;48.900;9.090;2022-07-23T13:50:03;29.60;99.90
20180;DHT22;10249;48.900;9.090;2022-07-23T13:52:31;29.00;99.90
20180;DHT22;10249;48.900;9.090;2022-07-23T13:54:59;28.70;99.90
20180;DHT22;10249;48.900;9.090;2022-07-23T13:57:26;29.40;99.90
20180;DHT22;10249;48.900;9.090;2022-07-23T13:59:52;29.40;99.90
20180;DHT22;10249;48.900;9.090;2022-07-23T14:02:19;29.00;99.90
20180;DHT22;10249;48.900;9.090;2022-07-23T14:04:46;28.90;99.90
20180;DHT22;10249;48.900;9.090;2022-07-23T14:07:13;29.40;99.90
20180;DHT22;10249;48.900;9.090;2022-07-23T14:09:41;29.50;99.90
20180;DHT22;10249;48.900;9.090;2022-07-23T14:12:08;29.40;99.90
20180;DHT22;10249;48.900;9.090;2022-07-23T14:14:35;29.80;99.90
20180;DHT22;10249;48.900;9.090;2022-07-23T14:17:02;30.10;99.90
20180;DHT22;10249;48.900;9.090;2022-07-23T14:19:29;29.50;99.90
20180;DHT22;10249;48.900;9.090;2022-07-23T14:21:55;29.10;99.90
20180;DHT22;10249;48.900;9.090;2022-07-23T14:24:22;29.30;99.90
20180;DHT22;10249;48.900;9.090;2022-07-23T14:26:50;29.60;99.90
20180;DHT22;10249;48.900;9.090;2022-07-23T14:29:17;29.70;99.90
20180;DHT22;10249;48.900;9.090;2022-07-23T14:31:44;29.60;99.90
20180;DHT22;10249;48.900;9.090;2022-07-23T14:34:10;29.30;99.90
20180;DHT22;10249;48.900;9.090;2022-07-23T14:36:38;29.60;99.90
20180;DHT22;10249;48.900;9.090;2022-07-23T14:39:05;29.70;99.90
20180;DHT22;10249;48.900;9.090;2022-07-23T14:41:34;29.50;99.90
20180;DHT22;10249;48.900;9.090;2022-07-23T14:44:02;29.70;99.90
20180;DHT22;10249;48.900;9.090;2022-07-23T14:46:29;29.90;99.90
20180;DHT22;10249;48.900;9.090;2022-07-23T14:48:56;30.30;99.90
20180;DHT22;10249;48.900;9.090;2022-07-23T14:51:23;30.60;99.90
20180;DHT22;10249;48.900;9.090;2022-07-23T14:53:49;30.20;99.90
20180;DHT22;10249;48.900;9.090;2022-07-23T14:56:16;29.60;99.90
20180;DHT22;10249;48.900;9.090;2022-07-23T14:58:43;29.30;99.90
20180;DHT22;10249;48.900;9.090;2022-07-23T15:01:11;29.40;99.90
20180;DHT22;10249;48.900;9.090;2022-07-23T15:03:38;29.50;99.90
20180;DHT22;10249;48.900;9.090;2022-07-23T15:06:05;29.60;99.90
20180;DHT22;10249;48.900;9.090;2022-07-23T15:08:32;29.90;99.90
20180;DHT22;10249;48.900;9.090;2022-07-23T15:10:59;30.10;99.90
20180;DHT22;10249;48.900;9.090;2022-07-23T15:13:26;29.60;99.90
20180;DHT22;10249;48.900;9.090;2022-07-23T15:15:53;29.20;99.90
20180;DHT22;10249;48.900;9.090;2022-07-23T15:18:21;29.70;99.90
20180;DHT22;10249;48.900;9.090;2022-07-23T15:20:47;29.40;99.90
20180;DHT22;10249;48.900;9.090;2022-07-23T15:23:14;29.60;99.90
20180;DHT22;10249;48.900;9.090;2022-07-23T15:25:41;29.90;99.90
20180;DHT22;10249;48.900;9.090;2022-07-23T15:28:08;30.00;99.90
20180;DHT22;10249;48.900;9.090;2022-07-23T15:30:34;30.30;99.90
20180;DHT22;10249;48.900;9.090;2022-07-23T15:33:01;30.20;99.90
20180;DHT22;10249;48.900;9.090;2022-07-23T15:35:31;30.50;99.90
20180;DHT22;10249;48.900;9.090;2022-07-23T15:37:58;30.30;99.90
20180;DHT22;10249;48.900;9.090;2022-07-23T15:40:24;29.90;99.90
20180;DHT22;10249;48.900;9.090;2022-07-23T15:42:51;30.00;99.90
20180;DHT22;10249;48.900;9.090;2022-07-23T15:45:18;29.50;99.90
20180;DHT22;10249;48.900;9.090;2022-07-23T15:47:46;29.60;99.90
20180;DHT22;10249;48.900;9.090;2022-07-23T15:50:13;29.50;99.90
20180;DHT22;10249;48.900;9.090;2022-07-23T15:52:42;29.90;99.90
20180;DHT22;10249;48.900;9.090;2022-07-23T15:55:09;29.90;99.90
20180;DHT22;10249;48.900;9.090;2022-07-23T15:57:36;30.00;99.90
20180;DHT22;10249;48.900;9.090;2022-07-23T16:00:05;30.10;99.90
20180;DHT22;10249;48.900;9.090;2022-07-23T16:02:32;30.70;99.90
20180;DHT22;10249;48.900;9.090;2022-07-23T16:04:58;30.20;99.90
20180;DHT22;10249;48.900;9.090;2022-07-23T16:07:25;29.80;99.90
20180;DHT22;10249;48.900;9.090;2022-07-23T16:09:53;29.50;99.90
20180;DHT22;10249;48.900;9.090;2022-07-23T16:12:20;29.30;99.90
20180;DHT22;10249;48.900;9.090;2022-07-23T16:14:47;28.90;99.90
20180;DHT22;10249;48.900;9.090;2022-07-23T16:17:13;28.50;99.90
20180;DHT22;10249;48.900;9.090;2022-07-23T16:19:40;29.30;99.90
20180;DHT22;10249;48.900;9.090;2022-07-23T16:22:07;29.30;99.90
20180;DHT22;10249;48.900;9.090;2022-07-23T16:24:36;29.40;99.90
20180;DHT22;10249;48.900;9.090;2022-07-23T16:27:04;29.80;99.90
20180;DHT22;10249;48.900;9.090;2022-07-23T16:29:31;30.90;99.90
20180;DHT22;10249;48.900;9.090;2022-07-23T16:31:58;30.90;99.90
20180;DHT22;10249;48.900;9.090;2022-07-23T16:34:24;31.40;99.90
20180;DHT22;10249;48.900;9.090;2022-07-23T16:36:51;30.10;99.90
20180;DHT22;10249;48.900;9.090;2022-07-23T16:39:18;30.50;99.90
20180;DHT22;10249;48.900;9.090;2022-07-23T16:41:45;29.00;99.90
20180;DHT22;10249;48.900;9.090;2022-07-23T16:44:13;28.20;99.90
20180;DHT22;10249;48.900;9.090;2022-07-23T16:46:40;28.30;99.90
20180;DHT22;10249;48.900;9.090;2022-07-23T16:49:07;27.90;99.90
20180;DHT22;10249;48.900;9.090;2022-07-23T16:51:34;28.30;99.90
20180;DHT22;10249;48.900;9.090;2022-07-23T16:54:00;28.90;99.90